createdAt,value
2023-01-29T00:00:11.775Z,16.88
2023-01-29T00:03:19.349Z,15.75
2023-01-29T00:06:24.252Z,16.20
2023-01-29T00:09:29.050Z,16.48
2023-01-29T00:12:33.577Z,16.63
2023-01-29T00:15:38.094Z,13.80
2023-01-29T00:18:42.946Z,15.82
2023-01-29T00:21:47.437Z,9.77
2023-01-29T00:24:51.961Z,15.07
2023-01-29T00:27:56.532Z,11.68
2023-01-29T00:31:11.997Z,11.90
2023-01-29T00:34:16.695Z,9.23
2023-01-29T00:37:21.188Z,8.23
2023-01-29T00:40:26.745Z,6.82
2023-01-29T00:43:49.679Z,9.00
2023-01-29T00:46:54.787Z,6.25
2023-01-29T00:50:05.047Z,5.50
2023-01-29T00:53:09.790Z,5.53
2023-01-29T00:56:14.316Z,6.75
2023-01-29T00:59:18.846Z,5.65
2023-01-29T01:02:44.514Z,5.25
2023-01-29T01:05:49.181Z,7.53
2023-01-29T01:09:12.239Z,12.05
2023-01-29T01:12:16.733Z,7.75
2023-01-29T01:15:22.843Z,7.63
2023-01-29T01:18:28.923Z,8.05
2023-01-29T01:21:33.456Z,6.40
2023-01-29T01:24:38.391Z,5.03
2023-01-29T01:27:43.017Z,6.45
2023-01-29T01:30:47.569Z,5.95
2023-01-29T01:33:54.245Z,6.20
2023-01-29T01:36:58.819Z,6.22
2023-01-29T01:40:05.717Z,8.68
2023-01-29T01:43:10.945Z,7.97
2023-01-29T01:46:15.440Z,11.25
2023-01-29T01:49:21.615Z,10.30
2023-01-29T01:52:26.188Z,12.80
2023-01-29T01:55:34.332Z,14.63
2023-01-29T01:58:45.282Z,14.30
2023-01-29T02:01:53.942Z,15.98
2023-01-29T02:05:17.392Z,15.10
2023-01-29T02:08:54.511Z,16.98
2023-01-29T02:11:59.141Z,17.45
2023-01-29T02:15:05.164Z,14.15
2023-01-29T02:18:09.869Z,15.15
2023-01-29T02:21:29.052Z,15.15
2023-01-29T02:25:16.167Z,12.52
2023-01-29T02:28:44.001Z,13.38
2023-01-29T02:32:17.476Z,15.35
2023-01-29T02:35:34.593Z,15.65
2023-01-29T02:38:40.905Z,13.98
2023-01-29T02:42:06.409Z,14.15
2023-01-29T02:45:11.650Z,15.82
2023-01-29T02:48:20.550Z,13.95
2023-01-29T02:51:34.096Z,13.10
2023-01-29T02:54:46.830Z,11.82
2023-01-29T02:57:57.701Z,11.27
2023-01-29T03:01:09.597Z,9.05
2023-01-29T03:04:16.016Z,9.93
2023-01-29T03:07:46.785Z,14.40
2023-01-29T03:11:04.387Z,12.85
2023-01-29T03:14:14.457Z,10.73
2023-01-29T03:17:25.422Z,10.20
2023-01-29T03:20:35.336Z,10.57
2023-01-29T03:23:59.309Z,13.85
2023-01-29T03:27:28.830Z,12.23
2023-01-29T03:30:56.277Z,14.77
2023-01-29T03:34:24.168Z,15.13
2023-01-29T03:37:43.551Z,11.73
2023-01-29T03:40:59.693Z,13.82
2023-01-29T03:44:06.954Z,15.00
2023-01-29T03:47:25.260Z,14.95
2023-01-29T03:50:47.700Z,12.80
2023-01-29T03:53:56.170Z,18.50
2023-01-29T03:57:15.980Z,15.68
2023-01-29T04:00:35.853Z,11.95
2023-01-29T04:03:51.585Z,13.70
2023-01-29T04:07:00.610Z,10.10
2023-01-29T04:10:12.891Z,10.35
2023-01-29T04:13:18.500Z,12.13
2023-01-29T04:16:36.815Z,12.60
2023-01-29T04:19:58.980Z,12.35
2023-01-29T04:23:06.884Z,12.02
2023-01-29T04:26:30.514Z,13.30
2023-01-29T04:29:48.551Z,11.70
2023-01-29T04:32:53.884Z,9.30
2023-01-29T04:36:41.337Z,9.50
2023-01-29T04:39:46.909Z,10.02
2023-01-29T04:43:08.444Z,9.63
2023-01-29T04:46:21.164Z,9.40
2023-01-29T04:49:47.059Z,8.18
2023-01-29T04:53:38.319Z,9.02
2023-01-29T04:56:57.537Z,10.13
2023-01-29T05:00:23.992Z,8.40
2023-01-29T05:03:31.285Z,10.70
2023-01-29T05:06:37.889Z,10.10
2023-01-29T05:09:45.196Z,10.10
2023-01-29T05:12:57.959Z,9.32
2023-01-29T05:16:16.973Z,8.52
2023-01-29T05:19:22.964Z,9.60
2023-01-29T05:22:27.705Z,8.82
2023-01-29T05:25:33.561Z,12.27
2023-01-29T05:28:38.101Z,15.68
2023-01-29T05:31:44.725Z,8.18
2023-01-29T05:34:49.356Z,7.85
2023-01-29T05:37:55.980Z,9.05
2023-01-29T05:41:00.572Z,8.57
2023-01-29T05:44:05.216Z,9.68
2023-01-29T05:47:09.725Z,6.35
2023-01-29T05:50:15.847Z,7.50
2023-01-29T05:53:20.624Z,8.43
2023-01-29T05:56:25.458Z,6.88
2023-01-29T05:59:31.187Z,4.60
2023-01-29T06:02:35.761Z,3.83
2023-01-29T06:05:40.615Z,3.25
2023-01-29T06:08:46.927Z,3.50
2023-01-29T06:11:51.412Z,4.25
2023-01-29T06:14:55.984Z,4.50
2023-01-29T06:18:00.560Z,4.47
2023-01-29T06:21:07.617Z,3.80
2023-01-29T06:24:12.190Z,3.83
2023-01-29T06:27:16.756Z,3.42
2023-01-29T06:30:23.368Z,5.20
2023-01-29T06:33:27.926Z,4.10
2023-01-29T06:36:32.536Z,4.35
2023-01-29T06:39:37.058Z,4.00
2023-01-29T06:42:41.597Z,5.43
2023-01-29T06:45:48.473Z,6.53
2023-01-29T06:48:52.983Z,3.40
2023-01-29T06:51:57.703Z,3.25
2023-01-29T06:55:02.178Z,4.13
2023-01-29T06:58:12.043Z,3.10
2023-01-29T07:01:33.404Z,3.92
2023-01-29T07:04:41.469Z,4.60
2023-01-29T07:07:46.122Z,3.63
2023-01-29T07:10:50.680Z,4.38
2023-01-29T07:13:55.215Z,5.53
2023-01-29T07:16:59.836Z,4.00
2023-01-29T07:20:06.080Z,4.40
2023-01-29T07:23:12.880Z,5.57
2023-01-29T07:26:17.450Z,4.22
2023-01-29T07:29:21.986Z,4.15
2023-01-29T07:32:28.909Z,4.00
2023-01-29T07:35:37.107Z,3.53
2023-01-29T07:38:41.786Z,4.13
2023-01-29T07:41:46.329Z,4.63
2023-01-29T07:44:54.168Z,4.40
2023-01-29T07:47:58.788Z,2.42
2023-01-29T07:51:03.332Z,2.95
2023-01-29T07:54:07.862Z,4.68
2023-01-29T07:57:12.887Z,4.13
2023-01-29T08:00:18.118Z,2.88
2023-01-29T08:03:22.928Z,3.72
2023-01-29T08:06:27.487Z,3.42
2023-01-29T08:09:33.155Z,5.70
2023-01-29T08:12:37.728Z,3.33
2023-01-29T08:15:46.075Z,4.15
2023-01-29T08:18:50.616Z,3.92
2023-01-29T08:21:55.166Z,4.30
2023-01-29T08:25:08.217Z,5.20
2023-01-29T08:28:13.091Z,2.80
2023-01-29T08:31:22.735Z,3.15
2023-01-29T08:34:27.468Z,4.38
2023-01-29T08:37:32.016Z,3.03
2023-01-29T08:40:36.590Z,3.95
2023-01-29T08:43:42.940Z,4.40
2023-01-29T08:46:47.472Z,3.13
2023-01-29T08:49:52.061Z,2.35
2023-01-29T08:53:00.627Z,3.03
2023-01-29T08:56:05.392Z,4.30
2023-01-29T08:59:10.552Z,4.50
2023-01-29T09:02:16.953Z,3.70
2023-01-29T09:05:21.552Z,4.53
2023-01-29T09:08:26.180Z,2.47
2023-01-29T09:11:30.654Z,3.70
2023-01-29T09:14:35.483Z,4.47
2023-01-29T09:17:40.918Z,2.83
2023-01-29T09:20:45.503Z,3.50
2023-01-29T09:23:49.978Z,3.97
2023-01-29T09:26:54.472Z,3.97
2023-01-29T09:29:59.110Z,2.67
2023-01-29T09:33:04.915Z,4.47
2023-01-29T09:36:09.571Z,4.32
2023-01-29T09:39:14.132Z,6.50
2023-01-29T09:42:48.786Z,3.75
2023-01-29T09:46:15.044Z,2.85
2023-01-29T09:49:19.524Z,4.22
2023-01-29T09:52:37.701Z,4.70
2023-01-29T09:56:05.998Z,6.30
2023-01-29T09:59:11.887Z,4.80
2023-01-29T10:02:32.312Z,2.78
2023-01-29T10:05:48.149Z,3.83
2023-01-29T10:09:22.284Z,2.95
2023-01-29T10:12:47.593Z,3.92
2023-01-29T10:16:03.209Z,3.55
2023-01-29T10:19:22.738Z,3.72
2023-01-29T10:22:45.150Z,3.42
2023-01-29T10:25:49.901Z,4.57
2023-01-29T10:28:58.525Z,3.60
2023-01-29T10:32:05.919Z,3.08
2023-01-29T10:35:22.013Z,5.35
2023-01-29T10:38:35.783Z,3.28
2023-01-29T10:41:55.490Z,5.13
2023-01-29T10:45:15.555Z,5.07
2023-01-29T10:48:40.356Z,4.85
2023-01-29T10:52:03.185Z,4.05
2023-01-29T10:55:32.712Z,3.80
2023-01-29T10:58:45.512Z,5.28
2023-01-29T11:01:51.372Z,4.28
2023-01-29T11:04:56.070Z,3.65
2023-01-29T11:08:19.709Z,5.03
2023-01-29T11:11:36.131Z,3.20
2023-01-29T11:15:07.069Z,3.45
2023-01-29T11:18:15.308Z,5.45
2023-01-29T11:21:20.272Z,10.43
2023-01-29T11:24:25.958Z,3.55
2023-01-29T11:27:35.301Z,4.75
2023-01-29T11:30:41.686Z,4.32
2023-01-29T11:33:48.224Z,6.88
2023-01-29T11:37:04.498Z,5.43
2023-01-29T11:40:23.915Z,3.28
2023-01-29T11:43:32.204Z,4.90
2023-01-29T11:46:39.749Z,4.85
2023-01-29T11:49:54.837Z,4.43
2023-01-29T11:53:00.248Z,4.97
2023-01-29T11:56:16.595Z,4.22
2023-01-29T11:59:37.702Z,4.15
2023-01-29T12:02:43.896Z,5.00
2023-01-29T12:05:58.814Z,4.18
2023-01-29T12:09:10.857Z,6.53
2023-01-29T12:12:29.398Z,4.40
2023-01-29T12:15:34.052Z,4.85
2023-01-29T12:18:44.150Z,4.50
2023-01-29T12:21:49.121Z,6.10
2023-01-29T12:25:02.032Z,6.40
2023-01-29T12:28:50.565Z,6.45
2023-01-29T12:32:04.816Z,5.38
2023-01-29T12:35:28.381Z,4.82
2023-01-29T12:38:34.086Z,5.88
2023-01-29T12:41:46.141Z,6.15
2023-01-29T12:44:58.649Z,7.23
2023-01-29T12:48:09.905Z,5.32
2023-01-29T12:51:19.292Z,8.68
2023-01-29T12:54:35.024Z,7.82
2023-01-29T12:57:50.586Z,4.43
2023-01-29T13:01:01.357Z,5.90
2023-01-29T13:04:16.685Z,7.97
2023-01-29T13:07:23.708Z,7.00
2023-01-29T13:10:35.633Z,6.40
2023-01-29T13:13:54.007Z,5.28
2023-01-29T13:17:21.361Z,6.80
2023-01-29T13:20:29.135Z,7.90
2023-01-29T13:23:39.379Z,8.07
2023-01-29T13:26:50.549Z,9.10
2023-01-29T13:29:56.469Z,5.97
2023-01-29T13:33:10.513Z,8.50
2023-01-29T13:36:21.881Z,6.30
2023-01-29T13:39:37.891Z,5.70
2023-01-29T13:42:50.335Z,5.65
2023-01-29T13:45:55.007Z,7.43
2023-01-29T13:49:04.870Z,5.93
2023-01-29T13:52:10.879Z,6.60
2023-01-29T13:55:15.684Z,6.97
2023-01-29T13:58:32.256Z,6.50
2023-01-29T14:01:48.951Z,6.15
2023-01-29T14:05:30.521Z,6.40
2023-01-29T14:08:35.139Z,6.90
2023-01-29T14:11:48.312Z,7.20
2023-01-29T14:14:56.549Z,7.13
2023-01-29T14:18:25.161Z,5.97
2023-01-29T14:21:32.780Z,7.65
2023-01-29T14:24:37.400Z,5.18
2023-01-29T14:27:47.494Z,8.73
2023-01-29T14:30:52.571Z,4.63
2023-01-29T14:34:02.358Z,10.05
2023-01-29T14:37:15.867Z,4.72
2023-01-29T14:40:25.812Z,8.65
2023-01-29T14:43:30.406Z,5.65
2023-01-29T14:46:35.264Z,5.18
2023-01-29T14:49:50.934Z,5.65
2023-01-29T14:53:22.954Z,5.90
2023-01-29T14:56:32.546Z,7.38
2023-01-29T14:59:47.204Z,5.30
2023-01-29T15:03:01.321Z,5.32
2023-01-29T15:06:09.751Z,5.85
2023-01-29T15:09:42.940Z,6.32
2023-01-29T15:12:56.356Z,7.78
2023-01-29T15:16:15.967Z,7.47
2023-01-29T15:19:29.771Z,5.45
2023-01-29T15:22:42.709Z,7.00
2023-01-29T15:29:04.140Z,6.20
2023-01-29T15:32:16.916Z,6.10
2023-01-29T15:35:34.175Z,6.17
2023-01-29T15:38:38.660Z,7.88
2023-01-29T15:41:43.973Z,10.23
2023-01-29T15:44:48.523Z,5.05
2023-01-29T15:48:01.728Z,8.07
2023-01-29T15:54:16.059Z,5.50
2023-01-29T15:57:25.558Z,7.43
2023-01-29T16:00:33.374Z,12.20
2023-01-29T16:03:38.225Z,7.97
2023-01-29T16:06:43.524Z,7.45
2023-01-29T16:09:49.255Z,9.30
2023-01-29T16:12:54.435Z,6.80
2023-01-29T16:16:23.805Z,5.32
2023-01-29T16:19:29.479Z,5.28
2023-01-29T16:22:36.865Z,8.80
2023-01-29T16:25:41.452Z,6.82
2023-01-29T16:28:46.934Z,5.20
2023-01-29T16:31:53.082Z,6.53
2023-01-29T16:34:59.953Z,55.70
2023-01-29T16:38:23.325Z,11.65
2023-01-29T16:41:30.907Z,9.25
2023-01-29T16:44:37.478Z,8.40
2023-01-29T16:47:42.051Z,7.85
2023-01-29T16:50:55.055Z,5.65
2023-01-29T16:54:18.209Z,6.85
2023-01-29T16:57:25.861Z,9.23
2023-01-29T17:00:31.470Z,8.38
2023-01-29T17:03:37.267Z,6.45
2023-01-29T17:06:46.882Z,6.97
2023-01-29T17:09:55.638Z,5.88
2023-01-29T17:13:14.805Z,8.80
2023-01-29T17:16:19.315Z,6.45
2023-01-29T17:19:25.277Z,6.80
2023-01-29T17:22:30.923Z,8.32
2023-01-29T17:25:35.729Z,9.52
2023-01-29T17:28:44.467Z,11.98
2023-01-29T17:31:49.100Z,9.75
2023-01-29T17:34:53.577Z,7.90
2023-01-29T17:37:58.421Z,8.85
2023-01-29T17:41:05.114Z,8.48
2023-01-29T17:44:09.765Z,7.07
2023-01-29T17:47:15.362Z,7.95
2023-01-29T17:50:24.540Z,8.43
2023-01-29T17:53:44.215Z,9.02
2023-01-29T17:56:50.389Z,7.28
2023-01-29T17:59:54.904Z,8.02
2023-01-29T18:03:02.365Z,8.10
2023-01-29T18:06:09.004Z,11.10
2023-01-29T18:09:15.676Z,7.05
2023-01-29T18:12:20.210Z,9.60
2023-01-29T18:15:24.746Z,8.27
2023-01-29T18:18:30.092Z,7.50
2023-01-29T18:21:34.657Z,9.55
2023-01-29T18:24:39.232Z,7.22
2023-01-29T18:27:46.249Z,9.82
2023-01-29T18:30:50.968Z,9.05
2023-01-29T18:33:55.483Z,11.80
2023-01-29T18:37:00.268Z,8.43
2023-01-29T18:40:05.830Z,7.15
2023-01-29T18:43:10.315Z,8.57
2023-01-29T18:46:14.928Z,9.07
2023-01-29T18:49:20.885Z,12.07
2023-01-29T18:52:26.168Z,8.27
2023-01-29T18:55:30.704Z,8.30
2023-01-29T18:58:36.656Z,8.57
2023-01-29T19:01:41.498Z,10.15
2023-01-29T19:04:46.694Z,8.30
2023-01-29T19:07:52.120Z,11.65
2023-01-29T19:10:57.734Z,8.85
2023-01-29T19:14:02.345Z,10.48
2023-01-29T19:17:07.207Z,10.18
2023-01-29T19:20:12.252Z,10.48
2023-01-29T19:23:16.757Z,13.10
2023-01-29T19:26:21.403Z,9.70
2023-01-29T19:29:25.961Z,9.93
2023-01-29T19:32:30.524Z,12.70
2023-01-29T19:35:35.056Z,12.98
2023-01-29T19:38:39.830Z,12.80
2023-01-29T19:41:44.399Z,12.60
2023-01-29T19:44:50.588Z,16.77
2023-01-29T19:47:55.143Z,14.48
2023-01-29T19:51:05.150Z,14.63
2023-01-29T19:54:09.927Z,13.35
2023-01-29T19:57:14.394Z,11.07
2023-01-29T20:00:19.625Z,10.45
2023-01-29T20:03:24.828Z,12.23
2023-01-29T20:06:33.144Z,9.95
2023-01-29T20:09:37.683Z,9.35
2023-01-29T20:12:44.744Z,10.27
2023-01-29T20:15:50.662Z,13.57
2023-01-29T20:18:55.256Z,12.48
2023-01-29T20:22:19.242Z,12.50
2023-01-29T20:25:23.776Z,13.45
2023-01-29T20:28:28.397Z,9.95
2023-01-29T20:31:34.178Z,10.77
2023-01-29T20:34:38.670Z,10.05
2023-01-29T20:37:43.188Z,9.88
2023-01-29T20:40:47.683Z,11.45
2023-01-29T20:43:52.235Z,13.15
2023-01-29T20:47:01.705Z,13.05
2023-01-29T20:50:10.586Z,11.48
2023-01-29T20:53:15.064Z,10.52
2023-01-29T20:56:23.108Z,10.27
2023-01-29T20:59:38.758Z,11.02
2023-01-29T21:02:45.676Z,12.15
2023-01-29T21:05:51.490Z,9.98
2023-01-29T21:08:56.049Z,13.65
2023-01-29T21:12:00.553Z,13.88
2023-01-29T21:15:05.432Z,12.02
2023-01-29T21:18:10.454Z,13.15
2023-01-29T21:21:16.076Z,13.60
2023-01-29T21:24:20.573Z,11.13
2023-01-29T21:27:25.593Z,15.65
2023-01-29T21:30:30.363Z,15.77
2023-01-29T21:33:35.077Z,13.32
2023-01-29T21:36:39.668Z,14.80
2023-01-29T21:39:44.340Z,13.38
2023-01-29T21:43:07.368Z,14.90
2023-01-29T21:46:12.246Z,11.35
2023-01-29T21:49:16.998Z,12.40
2023-01-29T21:52:21.527Z,13.57
2023-01-29T21:55:26.040Z,16.90
2023-01-29T21:58:32.816Z,15.75
2023-01-29T22:01:38.887Z,14.13
2023-01-29T22:04:43.670Z,14.95
2023-01-29T22:07:49.626Z,18.52
2023-01-29T22:10:54.380Z,16.90
2023-01-29T22:13:59.365Z,17.30
2023-01-29T22:17:04.011Z,16.80
2023-01-29T22:20:13.469Z,17.67
2023-01-29T22:23:18.082Z,18.48
2023-01-29T22:26:22.663Z,16.85
2023-01-29T22:29:27.147Z,19.35
2023-01-29T22:32:32.564Z,20.92
2023-01-29T22:35:37.315Z,17.45
2023-01-29T22:38:42.925Z,17.02
2023-01-29T22:41:47.965Z,17.15
2023-01-29T22:44:52.461Z,19.55
2023-01-29T22:47:58.094Z,17.10
2023-01-29T22:51:11.826Z,18.45
2023-01-29T22:54:16.470Z,19.15
2023-01-29T22:57:21.253Z,18.40
2023-01-29T23:00:26.064Z,17.85
2023-01-29T23:03:31.919Z,21.65
2023-01-29T23:06:36.405Z,16.70
2023-01-29T23:09:40.996Z,16.60
2023-01-29T23:12:45.497Z,17.50
2023-01-29T23:15:59.300Z,18.02
2023-01-29T23:19:03.883Z,17.73
2023-01-29T23:22:08.393Z,17.15
2023-01-29T23:25:13.071Z,15.35
2023-01-29T23:28:18.864Z,15.82
2023-01-29T23:31:23.492Z,17.65
2023-01-29T23:34:28.023Z,18.83
2023-01-29T23:37:32.558Z,15.52
2023-01-29T23:40:37.146Z,15.75
2023-01-29T23:43:41.721Z,18.10
2023-01-29T23:46:46.397Z,17.98
2023-01-29T23:49:52.699Z,19.98
2023-01-29T23:52:57.316Z,17.27
2023-01-29T23:56:04.295Z,16.10
2023-01-29T23:59:08.832Z,17.75
